sensor_id;sensor_type;location;lat;lon;timestamp;P1;durP1;ratioP1;P2;durP2;ratioP2
16460;SDS011;8341;42.048;24.650;2023-07-28T00:00:43;3.10;;;2.90;;
16460;SDS011;8341;42.048;24.650;2023-07-28T00:03:10;3.40;;;3.20;;
16460;SDS011;8341;42.048;24.650;2023-07-28T00:05:37;3.15;;;2.95;;
16460;SDS011;8341;42.048;24.650;2023-07-28T00:08:03;3.15;;;2.95;;
16460;SDS011;8341;42.048;24.650;2023-07-28T00:10:30;3.25;;;3.05;;
16460;SDS011;8341;42.048;24.650;2023-07-28T00:12:57;3.58;;;3.25;;
16460;SDS011;8341;42.048;24.650;2023-07-28T00:15:27;3.63;;;3.15;;
16460;SDS011;8341;42.048;24.650;2023-07-28T00:17:54;2.85;;;2.75;;
16460;SDS011;8341;42.048;24.650;2023-07-28T00:20:21;3.15;;;2.95;;
16460;SDS011;8341;42.048;24.650;2023-07-28T00:22:48;3.08;;;2.65;;
16460;SDS011;8341;42.048;24.650;2023-07-28T00:25:14;2.97;;;2.55;;
16460;SDS011;8341;42.048;24.650;2023-07-28T00:27:41;3.03;;;2.83;;
16460;SDS011;8341;42.048;24.650;2023-07-28T00:30:09;3.15;;;2.80;;
16460;SDS011;8341;42.048;24.650;2023-07-28T00:32:38;3.50;;;2.75;;
16460;SDS011;8341;42.048;24.650;2023-07-28T00:35:05;2.78;;;2.63;;
16460;SDS011;8341;42.048;24.650;2023-07-28T00:37:33;3.00;;;2.80;;
16460;SDS011;8341;42.048;24.650;2023-07-28T00:39:59;3.13;;;3.03;;
16460;SDS011;8341;42.048;24.650;2023-07-28T00:42:26;3.00;;;2.80;;
16460;SDS011;8341;42.048;24.650;2023-07-28T00:44:53;2.90;;;2.70;;
16460;SDS011;8341;42.048;24.650;2023-07-28T00:47:20;2.97;;;2.78;;
16460;SDS011;8341;42.048;24.650;2023-07-28T00:49:48;3.45;;;2.60;;
16460;SDS011;8341;42.048;24.650;2023-07-28T00:52:15;2.83;;;2.65;;
16460;SDS011;8341;42.048;24.650;2023-07-28T00:54:42;2.95;;;2.75;;
16460;SDS011;8341;42.048;24.650;2023-07-28T00:57:09;2.92;;;2.72;;
16460;SDS011;8341;42.048;24.650;2023-07-28T00:59:36;2.88;;;2.65;;
16460;SDS011;8341;42.048;24.650;2023-07-28T01:02:03;2.88;;;2.67;;
16460;SDS011;8341;42.048;24.650;2023-07-28T01:04:30;2.72;;;2.53;;
16460;SDS011;8341;42.048;24.650;2023-07-28T01:07:01;2.70;;;2.50;;
16460;SDS011;8341;42.048;24.650;2023-07-28T01:09:36;2.90;;;2.75;;
16460;SDS011;8341;42.048;24.650;2023-07-28T01:12:08;2.63;;;2.42;;
16460;SDS011;8341;42.048;24.650;2023-07-28T01:14:35;3.10;;;2.70;;
16460;SDS011;8341;42.048;24.650;2023-07-28T01:17:02;2.78;;;2.67;;
16460;SDS011;8341;42.048;24.650;2023-07-28T01:19:29;2.92;;;2.72;;
16460;SDS011;8341;42.048;24.650;2023-07-28T01:21:59;3.10;;;2.40;;
16460;SDS011;8341;42.048;24.650;2023-07-28T01:24:55;2.75;;;2.65;;
16460;SDS011;8341;42.048;24.650;2023-07-28T01:27:33;2.50;;;2.40;;
16460;SDS011;8341;42.048;24.650;2023-07-28T01:30:02;2.95;;;2.47;;
16460;SDS011;8341;42.048;24.650;2023-07-28T01:32:29;2.55;;;2.45;;
16460;SDS011;8341;42.048;24.650;2023-07-28T01:34:56;2.95;;;2.75;;
16460;SDS011;8341;42.048;24.650;2023-07-28T01:37:23;2.63;;;2.42;;
16460;SDS011;8341;42.048;24.650;2023-07-28T01:39:50;2.70;;;2.50;;
16460;SDS011;8341;42.048;24.650;2023-07-28T01:42:17;2.78;;;2.58;;
16460;SDS011;8341;42.048;24.650;2023-07-28T01:44:45;2.50;;;2.30;;
16460;SDS011;8341;42.048;24.650;2023-07-28T01:47:12;2.25;;;2.15;;
16460;SDS011;8341;42.048;24.650;2023-07-28T01:49:39;2.63;;;2.40;;
16460;SDS011;8341;42.048;24.650;2023-07-28T01:52:06;2.78;;;2.58;;
16460;SDS011;8341;42.048;24.650;2023-07-28T01:54:33;2.65;;;2.55;;
16460;SDS011;8341;42.048;24.650;2023-07-28T01:56:59;2.28;;;2.17;;
16460;SDS011;8341;42.048;24.650;2023-07-28T01:59:26;2.45;;;2.20;;
16460;SDS011;8341;42.048;24.650;2023-07-28T02:01:54;2.38;;;2.28;;
16460;SDS011;8341;42.048;24.650;2023-07-28T02:04:21;2.95;;;2.65;;
16460;SDS011;8341;42.048;24.650;2023-07-28T02:06:48;2.25;;;2.15;;
16460;SDS011;8341;42.048;24.650;2023-07-28T02:09:15;2.88;;;2.67;;
16460;SDS011;8341;42.048;24.650;2023-07-28T02:11:42;2.95;;;2.60;;
16460;SDS011;8341;42.048;24.650;2023-07-28T02:14:09;2.72;;;2.53;;
16460;SDS011;8341;42.048;24.650;2023-07-28T02:16:35;2.30;;;2.20;;
16460;SDS011;8341;42.048;24.650;2023-07-28T02:19:04;2.42;;;2.28;;
16460;SDS011;8341;42.048;24.650;2023-07-28T02:21:30;2.33;;;2.22;;
16460;SDS011;8341;42.048;24.650;2023-07-28T02:23:57;2.70;;;2.50;;
16460;SDS011;8341;42.048;24.650;2023-07-28T02:26:24;5.30;;;2.45;;
16460;SDS011;8341;42.048;24.650;2023-07-28T02:28:51;2.65;;;2.33;;
16460;SDS011;8341;42.048;24.650;2023-07-28T02:31:17;2.40;;;2.20;;
16460;SDS011;8341;42.048;24.650;2023-07-28T02:33:44;2.38;;;2.20;;
16460;SDS011;8341;42.048;24.650;2023-07-28T02:36:12;2.55;;;2.30;;
16460;SDS011;8341;42.048;24.650;2023-07-28T02:38:39;2.47;;;2.38;;
16460;SDS011;8341;42.048;24.650;2023-07-28T02:41:06;13.00;;;11.07;;
16460;SDS011;8341;42.048;24.650;2023-07-28T02:43:32;9.52;;;8.52;;
16460;SDS011;8341;42.048;24.650;2023-07-28T02:46:00;5.60;;;5.10;;
16460;SDS011;8341;42.048;24.650;2023-07-28T02:48:27;6.95;;;5.40;;
16460;SDS011;8341;42.048;24.650;2023-07-28T02:50:53;7.53;;;6.82;;
16460;SDS011;8341;42.048;24.650;2023-07-28T02:53:22;8.10;;;7.30;;
16460;SDS011;8341;42.048;24.650;2023-07-28T02:55:48;8.23;;;7.15;;
16460;SDS011;8341;42.048;24.650;2023-07-28T02:58:15;12.18;;;9.55;;
16460;SDS011;8341;42.048;24.650;2023-07-28T03:00:43;7.90;;;7.15;;
16460;SDS011;8341;42.048;24.650;2023-07-28T03:03:11;10.50;;;7.50;;
16460;SDS011;8341;42.048;24.650;2023-07-28T03:05:39;5.03;;;4.63;;
16460;SDS011;8341;42.048;24.650;2023-07-28T03:08:06;3.35;;;3.15;;
16460;SDS011;8341;42.048;24.650;2023-07-28T03:10:34;4.68;;;2.92;;
16460;SDS011;8341;42.048;24.650;2023-07-28T03:13:01;3.63;;;3.33;;
16460;SDS011;8341;42.048;24.650;2023-07-28T03:15:28;3.35;;;2.63;;
16460;SDS011;8341;42.048;24.650;2023-07-28T03:17:55;2.78;;;2.45;;
16460;SDS011;8341;42.048;24.650;2023-07-28T03:20:21;2.50;;;2.30;;
16460;SDS011;8341;42.048;24.650;2023-07-28T03:22:48;4.18;;;2.55;;
16460;SDS011;8341;42.048;24.650;2023-07-28T03:25:15;2.40;;;2.20;;
16460;SDS011;8341;42.048;24.650;2023-07-28T03:27:43;2.50;;;2.30;;
16460;SDS011;8341;42.048;24.650;2023-07-28T03:30:10;4.10;;;2.78;;
16460;SDS011;8341;42.048;24.650;2023-07-28T03:32:37;2.83;;;2.03;;
16460;SDS011;8341;42.048;24.650;2023-07-28T03:35:04;2.67;;;2.30;;
16460;SDS011;8341;42.048;24.650;2023-07-28T03:37:32;2.33;;;2.10;;
16460;SDS011;8341;42.048;24.650;2023-07-28T03:39:59;2.58;;;2.10;;
16460;SDS011;8341;42.048;24.650;2023-07-28T03:42:26;2.75;;;2.55;;
16460;SDS011;8341;42.048;24.650;2023-07-28T03:44:55;2.38;;;2.25;;
16460;SDS011;8341;42.048;24.650;2023-07-28T03:47:21;2.83;;;2.10;;
16460;SDS011;8341;42.048;24.650;2023-07-28T03:49:49;3.13;;;2.30;;
16460;SDS011;8341;42.048;24.650;2023-07-28T03:52:15;2.53;;;2.30;;
16460;SDS011;8341;42.048;24.650;2023-07-28T03:54:42;2.53;;;2.28;;
16460;SDS011;8341;42.048;24.650;2023-07-28T03:57:09;2.20;;;2.10;;
16460;SDS011;8341;42.048;24.650;2023-07-28T03:59:36;1.92;;;1.83;;
16460;SDS011;8341;42.048;24.650;2023-07-28T04:02:04;2.30;;;2.20;;
16460;SDS011;8341;42.048;24.650;2023-07-28T04:04:31;2.13;;;1.80;;
16460;SDS011;8341;42.048;24.650;2023-07-28T04:06:58;4.43;;;2.15;;
16460;SDS011;8341;42.048;24.650;2023-07-28T04:09:25;5.57;;;1.70;;
16460;SDS011;8341;42.048;24.650;2023-07-28T04:11:53;2.65;;;1.88;;
16460;SDS011;8341;42.048;24.650;2023-07-28T04:14:20;1.73;;;1.65;;
16460;SDS011;8341;42.048;24.650;2023-07-28T04:16:47;1.80;;;1.70;;
16460;SDS011;8341;42.048;24.650;2023-07-28T04:19:15;1.80;;;1.70;;
16460;SDS011;8341;42.048;24.650;2023-07-28T04:21:42;1.85;;;1.75;;
16460;SDS011;8341;42.048;24.650;2023-07-28T04:24:09;3.25;;;2.03;;
16460;SDS011;8341;42.048;24.650;2023-07-28T04:26:36;2.60;;;1.90;;
16460;SDS011;8341;42.048;24.650;2023-07-28T04:29:03;2.15;;;1.85;;
16460;SDS011;8341;42.048;24.650;2023-07-28T04:31:30;15.43;;;2.47;;
16460;SDS011;8341;42.048;24.650;2023-07-28T04:33:57;2.20;;;2.00;;
16460;SDS011;8341;42.048;24.650;2023-07-28T04:36:25;13.52;;;2.28;;
16460;SDS011;8341;42.048;24.650;2023-07-28T04:38:52;14.27;;;2.30;;
16460;SDS011;8341;42.048;24.650;2023-07-28T04:41:19;2.17;;;1.90;;
16460;SDS011;8341;42.048;24.650;2023-07-28T04:43:46;3.35;;;1.92;;
16460;SDS011;8341;42.048;24.650;2023-07-28T04:46:13;1.77;;;1.50;;
16460;SDS011;8341;42.048;24.650;2023-07-28T04:48:39;2.90;;;1.50;;
16460;SDS011;8341;42.048;24.650;2023-07-28T04:51:06;1.40;;;1.40;;
16460;SDS011;8341;42.048;24.650;2023-07-28T04:53:34;1.65;;;1.55;;
16460;SDS011;8341;42.048;24.650;2023-07-28T04:56:01;1.48;;;1.38;;
16460;SDS011;8341;42.048;24.650;2023-07-28T04:58:28;1.70;;;1.60;;
16460;SDS011;8341;42.048;24.650;2023-07-28T05:00:55;2.28;;;1.65;;
16460;SDS011;8341;42.048;24.650;2023-07-28T05:03:22;1.30;;;1.20;;
16460;SDS011;8341;42.048;24.650;2023-07-28T05:05:49;1.75;;;1.63;;
16460;SDS011;8341;42.048;24.650;2023-07-28T05:08:16;1.80;;;1.70;;
16460;SDS011;8341;42.048;24.650;2023-07-28T05:10:44;1.60;;;1.50;;
16460;SDS011;8341;42.048;24.650;2023-07-28T05:13:11;1.73;;;1.63;;
16460;SDS011;8341;42.048;24.650;2023-07-28T05:15:38;1.50;;;1.40;;
16460;SDS011;8341;42.048;24.650;2023-07-28T05:18:05;2.00;;;1.65;;
16460;SDS011;8341;42.048;24.650;2023-07-28T05:20:32;1.70;;;1.60;;
16460;SDS011;8341;42.048;24.650;2023-07-28T05:22:58;1.30;;;1.30;;
16460;SDS011;8341;42.048;24.650;2023-07-28T05:25:25;1.73;;;1.63;;
16460;SDS011;8341;42.048;24.650;2023-07-28T05:27:53;1.50;;;1.50;;
16460;SDS011;8341;42.048;24.650;2023-07-28T05:30:20;1.67;;;1.58;;
16460;SDS011;8341;42.048;24.650;2023-07-28T05:32:47;10.43;;;2.05;;
16460;SDS011;8341;42.048;24.650;2023-07-28T05:35:14;4.13;;;1.80;;
16460;SDS011;8341;42.048;24.650;2023-07-28T05:37:41;3.15;;;1.70;;
16460;SDS011;8341;42.048;24.650;2023-07-28T05:40:08;1.80;;;1.70;;
16460;SDS011;8341;42.048;24.650;2023-07-28T05:42:36;2.63;;;2.42;;
16460;SDS011;8341;42.048;24.650;2023-07-28T05:45:06;6.85;;;2.20;;
16460;SDS011;8341;42.048;24.650;2023-07-28T05:47:33;2.53;;;2.00;;
16460;SDS011;8341;42.048;24.650;2023-07-28T05:50:00;2.10;;;1.90;;
16460;SDS011;8341;42.048;24.650;2023-07-28T05:52:27;2.35;;;1.90;;
16460;SDS011;8341;42.048;24.650;2023-07-28T05:54:54;2.40;;;2.17;;
16460;SDS011;8341;42.048;24.650;2023-07-28T05:57:21;4.15;;;2.30;;
16460;SDS011;8341;42.048;24.650;2023-07-28T05:59:47;18.80;;;3.55;;
16460;SDS011;8341;42.048;24.650;2023-07-28T06:02:16;3.05;;;2.80;;
16460;SDS011;8341;42.048;24.650;2023-07-28T06:04:43;2.85;;;2.65;;
16460;SDS011;8341;42.048;24.650;2023-07-28T06:07:09;3.10;;;2.90;;
16460;SDS011;8341;42.048;24.650;2023-07-28T06:09:37;3.17;;;2.90;;
16460;SDS011;8341;42.048;24.650;2023-07-28T06:12:04;2.78;;;2.58;;
16460;SDS011;8341;42.048;24.650;2023-07-28T06:14:31;4.45;;;3.10;;
16460;SDS011;8341;42.048;24.650;2023-07-28T06:16:58;4.13;;;3.08;;
16460;SDS011;8341;42.048;24.650;2023-07-28T06:19:26;3.05;;;2.78;;
16460;SDS011;8341;42.048;24.650;2023-07-28T06:21:53;4.30;;;2.85;;
16460;SDS011;8341;42.048;24.650;2023-07-28T06:24:20;3.15;;;2.90;;
16460;SDS011;8341;42.048;24.650;2023-07-28T06:26:47;4.15;;;3.20;;
16460;SDS011;8341;42.048;24.650;2023-07-28T06:29:15;3.80;;;2.95;;
16460;SDS011;8341;42.048;24.650;2023-07-28T06:31:42;3.80;;;2.80;;
16460;SDS011;8341;42.048;24.650;2023-07-28T06:34:09;3.42;;;3.13;;
16460;SDS011;8341;42.048;24.650;2023-07-28T06:36:37;4.72;;;2.78;;
16460;SDS011;8341;42.048;24.650;2023-07-28T06:39:03;4.55;;;3.08;;
16460;SDS011;8341;42.048;24.650;2023-07-28T06:41:30;3.58;;;2.70;;
16460;SDS011;8341;42.048;24.650;2023-07-28T06:43:57;4.40;;;3.15;;
16460;SDS011;8341;42.048;24.650;2023-07-28T06:46:24;3.78;;;3.00;;
16460;SDS011;8341;42.048;24.650;2023-07-28T06:48:51;3.20;;;3.00;;
16460;SDS011;8341;42.048;24.650;2023-07-28T06:51:18;3.50;;;3.20;;
16460;SDS011;8341;42.048;24.650;2023-07-28T06:53:46;3.58;;;3.20;;
16460;SDS011;8341;42.048;24.650;2023-07-28T06:56:13;4.38;;;2.85;;
16460;SDS011;8341;42.048;24.650;2023-07-28T06:58:40;3.55;;;3.25;;
16460;SDS011;8341;42.048;24.650;2023-07-28T07:01:07;4.30;;;3.08;;
16460;SDS011;8341;42.048;24.650;2023-07-28T07:03:35;4.72;;;3.28;;
16460;SDS011;8341;42.048;24.650;2023-07-28T07:06:02;3.75;;;3.08;;
16460;SDS011;8341;42.048;24.650;2023-07-28T07:08:29;3.83;;;3.30;;
16460;SDS011;8341;42.048;24.650;2023-07-28T07:10:58;3.13;;;2.90;;
16460;SDS011;8341;42.048;24.650;2023-07-28T07:13:25;3.50;;;3.20;;
16460;SDS011;8341;42.048;24.650;2023-07-28T07:15:52;3.60;;;3.30;;
16460;SDS011;8341;42.048;24.650;2023-07-28T07:18:19;4.68;;;3.50;;
16460;SDS011;8341;42.048;24.650;2023-07-28T07:20:46;3.38;;;3.15;;
16460;SDS011;8341;42.048;24.650;2023-07-28T07:23:12;3.40;;;3.10;;
16460;SDS011;8341;42.048;24.650;2023-07-28T07:25:39;3.88;;;3.00;;
16460;SDS011;8341;42.048;24.650;2023-07-28T07:28:08;3.80;;;3.40;;
16460;SDS011;8341;42.048;24.650;2023-07-28T07:30:35;3.22;;;2.92;;
16460;SDS011;8341;42.048;24.650;2023-07-28T07:33:01;3.22;;;2.90;;
16460;SDS011;8341;42.048;24.650;2023-07-28T07:35:28;3.38;;;3.05;;
16460;SDS011;8341;42.048;24.650;2023-07-28T07:37:55;3.60;;;3.28;;
16460;SDS011;8341;42.048;24.650;2023-07-28T07:40:22;3.40;;;3.10;;
16460;SDS011;8341;42.048;24.650;2023-07-28T07:42:49;3.42;;;3.10;;
16460;SDS011;8341;42.048;24.650;2023-07-28T07:45:18;3.25;;;2.90;;
16460;SDS011;8341;42.048;24.650;2023-07-28T07:47:45;3.10;;;2.90;;
16460;SDS011;8341;42.048;24.650;2023-07-28T07:50:12;4.20;;;3.17;;
16460;SDS011;8341;42.048;24.650;2023-07-28T07:52:39;3.22;;;2.70;;
16460;SDS011;8341;42.048;24.650;2023-07-28T07:55:08;2.65;;;2.45;;
16460;SDS011;8341;42.048;24.650;2023-07-28T07:57:36;3.08;;;2.88;;
16460;SDS011;8341;42.048;24.650;2023-07-28T08:00:03;3.17;;;2.63;;
16460;SDS011;8341;42.048;24.650;2023-07-28T08:02:31;5.00;;;3.30;;
16460;SDS011;8341;42.048;24.650;2023-07-28T08:04:58;3.22;;;2.92;;
16460;SDS011;8341;42.048;24.650;2023-07-28T08:07:25;3.08;;;2.60;;
16460;SDS011;8341;42.048;24.650;2023-07-28T08:09:52;3.17;;;2.83;;
16460;SDS011;8341;42.048;24.650;2023-07-28T08:12:19;2.90;;;2.70;;
16460;SDS011;8341;42.048;24.650;2023-07-28T08:14:46;3.15;;;2.65;;
16460;SDS011;8341;42.048;24.650;2023-07-28T08:17:13;3.63;;;2.70;;
16460;SDS011;8341;42.048;24.650;2023-07-28T08:19:41;2.83;;;2.63;;
16460;SDS011;8341;42.048;24.650;2023-07-28T08:22:08;2.88;;;2.53;;
16460;SDS011;8341;42.048;24.650;2023-07-28T08:24:35;2.67;;;2.20;;
16460;SDS011;8341;42.048;24.650;2023-07-28T08:27:02;2.40;;;2.20;;
16460;SDS011;8341;42.048;24.650;2023-07-28T08:29:29;4.68;;;3.10;;
16460;SDS011;8341;42.048;24.650;2023-07-28T08:31:56;2.70;;;2.50;;
16460;SDS011;8341;42.048;24.650;2023-07-28T08:34:23;4.95;;;2.75;;
16460;SDS011;8341;42.048;24.650;2023-07-28T08:36:52;2.60;;;2.40;;
16460;SDS011;8341;42.048;24.650;2023-07-28T08:39:19;2.72;;;2.53;;
16460;SDS011;8341;42.048;24.650;2023-07-28T08:41:46;5.10;;;2.20;;
16460;SDS011;8341;42.048;24.650;2023-07-28T08:44:13;2.28;;;2.17;;
16460;SDS011;8341;42.048;24.650;2023-07-28T08:46:41;7.30;;;2.47;;
16460;SDS011;8341;42.048;24.650;2023-07-28T08:49:08;19.20;;;2.92;;
16460;SDS011;8341;42.048;24.650;2023-07-28T08:51:35;2.83;;;2.53;;
16460;SDS011;8341;42.048;24.650;2023-07-28T08:54:08;3.22;;;2.40;;
16460;SDS011;8341;42.048;24.650;2023-07-28T08:56:36;2.53;;;2.33;;
16460;SDS011;8341;42.048;24.650;2023-07-28T08:59:03;2.97;;;2.08;;
16460;SDS011;8341;42.048;24.650;2023-07-28T09:01:30;3.33;;;1.80;;
16460;SDS011;8341;42.048;24.650;2023-07-28T09:03:57;2.00;;;1.90;;
16460;SDS011;8341;42.048;24.650;2023-07-28T09:06:27;3.45;;;1.90;;
16460;SDS011;8341;42.048;24.650;2023-07-28T09:08:56;1.75;;;1.65;;
16460;SDS011;8341;42.048;24.650;2023-07-28T09:11:25;1.63;;;1.60;;
16460;SDS011;8341;42.048;24.650;2023-07-28T09:13:53;3.65;;;1.88;;
16460;SDS011;8341;42.048;24.650;2023-07-28T09:16:21;1.80;;;1.70;;
16460;SDS011;8341;42.048;24.650;2023-07-28T09:18:49;2.22;;;2.03;;
16460;SDS011;8341;42.048;24.650;2023-07-28T09:21:17;3.75;;;1.83;;
16460;SDS011;8341;42.048;24.650;2023-07-28T09:23:46;2.72;;;1.98;;
16460;SDS011;8341;42.048;24.650;2023-07-28T09:26:13;4.75;;;1.80;;
16460;SDS011;8341;42.048;24.650;2023-07-28T09:28:42;3.97;;;1.73;;
16460;SDS011;8341;42.048;24.650;2023-07-28T09:31:09;4.05;;;1.63;;
16460;SDS011;8341;42.048;24.650;2023-07-28T09:33:36;2.88;;;1.63;;
16460;SDS011;8341;42.048;24.650;2023-07-28T09:36:08;3.28;;;1.77;;
16460;SDS011;8341;42.048;24.650;2023-07-28T09:38:36;4.53;;;1.70;;
16460;SDS011;8341;42.048;24.650;2023-07-28T09:41:06;1.50;;;1.40;;
16460;SDS011;8341;42.048;24.650;2023-07-28T09:43:35;2.13;;;1.48;;
16460;SDS011;8341;42.048;24.650;2023-07-28T09:46:04;2.03;;;1.60;;
16460;SDS011;8341;42.048;24.650;2023-07-28T09:48:32;28.80;;;3.03;;
16460;SDS011;8341;42.048;24.650;2023-07-28T09:51:00;2.28;;;1.55;;
16460;SDS011;8341;42.048;24.650;2023-07-28T09:53:32;2.90;;;1.63;;
16460;SDS011;8341;42.048;24.650;2023-07-28T09:56:05;1.70;;;1.55;;
16460;SDS011;8341;42.048;24.650;2023-07-28T09:58:33;2.22;;;1.70;;
16460;SDS011;8341;42.048;24.650;2023-07-28T10:01:09;1.58;;;1.48;;
16460;SDS011;8341;42.048;24.650;2023-07-28T10:03:37;1.50;;;1.40;;
16460;SDS011;8341;42.048;24.650;2023-07-28T10:06:04;1.60;;;1.50;;
16460;SDS011;8341;42.048;24.650;2023-07-28T10:08:31;1.80;;;1.70;;
16460;SDS011;8341;42.048;24.650;2023-07-28T10:10:59;1.25;;;1.20;;
16460;SDS011;8341;42.048;24.650;2023-07-28T10:13:27;1.83;;;1.73;;
16460;SDS011;8341;42.048;24.650;2023-07-28T10:15:54;1.85;;;1.30;;
16460;SDS011;8341;42.048;24.650;2023-07-28T10:18:23;2.03;;;1.45;;
16460;SDS011;8341;42.048;24.650;2023-07-28T10:20:52;4.22;;;1.50;;
16460;SDS011;8341;42.048;24.650;2023-07-28T10:23:20;1.50;;;1.40;;
16460;SDS011;8341;42.048;24.650;2023-07-28T10:25:55;1.73;;;1.63;;
16460;SDS011;8341;42.048;24.650;2023-07-28T10:28:26;3.08;;;1.85;;
16460;SDS011;8341;42.048;24.650;2023-07-28T10:30:56;2.80;;;2.10;;
16460;SDS011;8341;42.048;24.650;2023-07-28T10:33:30;2.08;;;1.45;;
16460;SDS011;8341;42.048;24.650;2023-07-28T10:35:58;18.02;;;2.20;;
16460;SDS011;8341;42.048;24.650;2023-07-28T10:38:29;1.63;;;1.50;;
16460;SDS011;8341;42.048;24.650;2023-07-28T10:41:10;3.10;;;1.67;;
16460;SDS011;8341;42.048;24.650;2023-07-28T10:43:39;4.28;;;1.50;;
16460;SDS011;8341;42.048;24.650;2023-07-28T10:46:07;3.00;;;1.70;;
16460;SDS011;8341;42.048;24.650;2023-07-28T10:48:37;2.17;;;1.60;;
16460;SDS011;8341;42.048;24.650;2023-07-28T10:51:08;1.50;;;1.40;;
16460;SDS011;8341;42.048;24.650;2023-07-28T10:53:36;1.42;;;1.35;;
16460;SDS011;8341;42.048;24.650;2023-07-28T10:56:04;2.47;;;1.55;;
16460;SDS011;8341;42.048;24.650;2023-07-28T10:58:33;2.72;;;1.70;;
16460;SDS011;8341;42.048;24.650;2023-07-28T11:01:01;2.28;;;1.83;;
16460;SDS011;8341;42.048;24.650;2023-07-28T11:03:28;1.52;;;1.42;;
16460;SDS011;8341;42.048;24.650;2023-07-28T11:05:57;1.42;;;1.33;;
16460;SDS011;8341;42.048;24.650;2023-07-28T11:08:24;1.83;;;1.60;;
16460;SDS011;8341;42.048;24.650;2023-07-28T11:10:51;1.60;;;1.50;;
16460;SDS011;8341;42.048;24.650;2023-07-28T11:13:18;1.65;;;1.55;;
16460;SDS011;8341;42.048;24.650;2023-07-28T11:15:45;4.43;;;1.58;;
16460;SDS011;8341;42.048;24.650;2023-07-28T11:18:14;2.05;;;1.60;;
16460;SDS011;8341;42.048;24.650;2023-07-28T11:20:42;1.80;;;1.70;;
16460;SDS011;8341;42.048;24.650;2023-07-28T11:23:13;1.60;;;1.50;;
16460;SDS011;8341;42.048;24.650;2023-07-28T11:25:41;2.25;;;1.65;;
16460;SDS011;8341;42.048;24.650;2023-07-28T11:28:09;1.80;;;1.70;;
16460;SDS011;8341;42.048;24.650;2023-07-28T11:30:36;2.22;;;1.60;;
16460;SDS011;8341;42.048;24.650;2023-07-28T11:33:04;2.28;;;1.92;;
16460;SDS011;8341;42.048;24.650;2023-07-28T11:35:36;2.80;;;1.38;;
16460;SDS011;8341;42.048;24.650;2023-07-28T11:38:03;2.38;;;2.17;;
16460;SDS011;8341;42.048;24.650;2023-07-28T11:40:31;2.63;;;1.50;;
16460;SDS011;8341;42.048;24.650;2023-07-28T11:42:59;2.40;;;1.67;;
16460;SDS011;8341;42.048;24.650;2023-07-28T11:45:29;2.15;;;1.98;;
16460;SDS011;8341;42.048;24.650;2023-07-28T11:47:56;2.03;;;1.65;;
16460;SDS011;8341;42.048;24.650;2023-07-28T11:50:25;1.50;;;1.40;;
16460;SDS011;8341;42.048;24.650;2023-07-28T11:52:53;1.60;;;1.50;;
16460;SDS011;8341;42.048;24.650;2023-07-28T11:55:21;3.17;;;1.75;;
16460;SDS011;8341;42.048;24.650;2023-07-28T11:57:50;4.55;;;2.85;;
16460;SDS011;8341;42.048;24.650;2023-07-28T12:00:18;2.55;;;1.90;;
16460;SDS011;8341;42.048;24.650;2023-07-28T12:02:59;3.83;;;1.80;;
16460;SDS011;8341;42.048;24.650;2023-07-28T12:05:27;1.52;;;1.48;;
16460;SDS011;8341;42.048;24.650;2023-07-28T12:07:54;2.10;;;1.90;;
16460;SDS011;8341;42.048;24.650;2023-07-28T12:10:21;1.60;;;1.50;;
16460;SDS011;8341;42.048;24.650;2023-07-28T12:12:50;1.42;;;1.40;;
16460;SDS011;8341;42.048;24.650;2023-07-28T12:15:18;3.30;;;1.90;;
16460;SDS011;8341;42.048;24.650;2023-07-28T12:18:00;2.45;;;1.83;;
16460;SDS011;8341;42.048;24.650;2023-07-28T12:20:32;1.92;;;1.83;;
16460;SDS011;8341;42.048;24.650;2023-07-28T12:23:00;1.52;;;1.52;;
16460;SDS011;8341;42.048;24.650;2023-07-28T12:25:26;2.10;;;1.50;;
16460;SDS011;8341;42.048;24.650;2023-07-28T12:27:55;1.90;;;1.80;;
16460;SDS011;8341;42.048;24.650;2023-07-28T12:30:22;1.73;;;1.63;;
16460;SDS011;8341;42.048;24.650;2023-07-28T12:32:49;2.05;;;1.90;;
16460;SDS011;8341;42.048;24.650;2023-07-28T12:35:16;1.90;;;1.80;;
16460;SDS011;8341;42.048;24.650;2023-07-28T12:37:43;3.15;;;1.80;;
16460;SDS011;8341;42.048;24.650;2023-07-28T12:40:11;2.95;;;1.88;;
16460;SDS011;8341;42.048;24.650;2023-07-28T12:42:38;1.90;;;1.80;;
16460;SDS011;8341;42.048;24.650;2023-07-28T12:45:07;3.22;;;2.78;;
16460;SDS011;8341;42.048;24.650;2023-07-28T12:47:36;3.17;;;1.67;;
16460;SDS011;8341;42.048;24.650;2023-07-28T12:50:03;2.60;;;1.95;;
16460;SDS011;8341;42.048;24.650;2023-07-28T12:52:31;2.25;;;1.65;;
16460;SDS011;8341;42.048;24.650;2023-07-28T12:54:58;6.03;;;1.70;;
16460;SDS011;8341;42.048;24.650;2023-07-28T12:57:25;2.42;;;1.70;;
16460;SDS011;8341;42.048;24.650;2023-07-28T12:59:52;2.03;;;1.92;;
16460;SDS011;8341;42.048;24.650;2023-07-28T13:02:20;1.95;;;1.85;;
16460;SDS011;8341;42.048;24.650;2023-07-28T13:04:47;2.20;;;2.03;;
16460;SDS011;8341;42.048;24.650;2023-07-28T13:07:13;2.03;;;1.80;;
16460;SDS011;8341;42.048;24.650;2023-07-28T13:09:40;1.88;;;1.77;;
16460;SDS011;8341;42.048;24.650;2023-07-28T13:12:08;2.67;;;1.40;;
16460;SDS011;8341;42.048;24.650;2023-07-28T13:14:35;2.22;;;1.65;;
16460;SDS011;8341;42.048;24.650;2023-07-28T13:17:01;3.25;;;1.80;;
16460;SDS011;8341;42.048;24.650;2023-07-28T13:19:30;7.90;;;6.13;;
16460;SDS011;8341;42.048;24.650;2023-07-28T13:21:57;2.17;;;2.08;;
16460;SDS011;8341;42.048;24.650;2023-07-28T13:24:23;4.30;;;2.10;;
16460;SDS011;8341;42.048;24.650;2023-07-28T13:26:50;1.90;;;1.80;;
16460;SDS011;8341;42.048;24.650;2023-07-28T13:29:17;1.77;;;1.70;;
16460;SDS011;8341;42.048;24.650;2023-07-28T13:31:44;2.17;;;1.98;;
16460;SDS011;8341;42.048;24.650;2023-07-28T13:34:10;5.40;;;2.13;;
16460;SDS011;8341;42.048;24.650;2023-07-28T13:36:39;1.80;;;1.70;;
16460;SDS011;8341;42.048;24.650;2023-07-28T13:39:05;2.40;;;1.63;;
16460;SDS011;8341;42.048;24.650;2023-07-28T13:41:32;11.05;;;2.55;;
16460;SDS011;8341;42.048;24.650;2023-07-28T13:43:59;2.50;;;1.60;;
16460;SDS011;8341;42.048;24.650;2023-07-28T13:46:26;1.80;;;1.70;;
16460;SDS011;8341;42.048;24.650;2023-07-28T13:48:52;1.90;;;1.80;;
16460;SDS011;8341;42.048;24.650;2023-07-28T13:51:19;2.63;;;2.30;;
16460;SDS011;8341;42.048;24.650;2023-07-28T13:53:47;2.03;;;1.92;;
16460;SDS011;8341;42.048;24.650;2023-07-28T13:56:14;3.13;;;2.45;;
16460;SDS011;8341;42.048;24.650;2023-07-28T13:58:42;2.00;;;1.90;;
16460;SDS011;8341;42.048;24.650;2023-07-28T14:01:09;1.48;;;1.48;;
16460;SDS011;8341;42.048;24.650;2023-07-28T14:03:35;2.00;;;1.85;;
16460;SDS011;8341;42.048;24.650;2023-07-28T14:06:02;4.88;;;2.05;;
16460;SDS011;8341;42.048;24.650;2023-07-28T14:08:29;1.83;;;1.73;;
16460;SDS011;8341;42.048;24.650;2023-07-28T14:10:58;1.90;;;1.80;;
16460;SDS011;8341;42.048;24.650;2023-07-28T14:13:24;2.22;;;1.90;;
16460;SDS011;8341;42.048;24.650;2023-07-28T14:15:51;1.95;;;1.75;;
16460;SDS011;8341;42.048;24.650;2023-07-28T14:18:18;2.08;;;1.98;;
16460;SDS011;8341;42.048;24.650;2023-07-28T14:20:45;1.92;;;1.83;;
16460;SDS011;8341;42.048;24.650;2023-07-28T14:23:21;2.78;;;1.90;;
16460;SDS011;8341;42.048;24.650;2023-07-28T14:25:50;1.90;;;1.80;;
16460;SDS011;8341;42.048;24.650;2023-07-28T14:28:18;1.92;;;1.83;;
16460;SDS011;8341;42.048;24.650;2023-07-28T14:30:46;2.35;;;1.85;;
16460;SDS011;8341;42.048;24.650;2023-07-28T14:33:15;1.73;;;1.63;;
16460;SDS011;8341;42.048;24.650;2023-07-28T14:35:43;1.95;;;1.85;;
16460;SDS011;8341;42.048;24.650;2023-07-28T14:38:11;6.55;;;1.90;;
16460;SDS011;8341;42.048;24.650;2023-07-28T14:40:38;3.17;;;1.83;;
16460;SDS011;8341;42.048;24.650;2023-07-28T14:43:05;2.55;;;1.90;;
16460;SDS011;8341;42.048;24.650;2023-07-28T14:45:33;2.00;;;1.90;;
16460;SDS011;8341;42.048;24.650;2023-07-28T14:48:01;2.17;;;1.98;;
16460;SDS011;8341;42.048;24.650;2023-07-28T14:50:28;1.95;;;1.80;;